createdAt,value
2014-08-06T00:00:46.043Z,66.51
2014-08-06T00:01:51.014Z,67.08
2014-08-06T00:02:55.705Z,67.27
2014-08-06T00:04:00.379Z,67.03
2014-08-06T00:05:05.662Z,66.99
2014-08-06T00:06:10.946Z,68.11
2014-08-06T00:07:15.618Z,68.23
2014-08-06T00:08:20.309Z,68.1
2014-08-06T00:09:24.998Z,68.02
2014-08-06T00:10:29.671Z,68.48
2014-08-06T00:11:34.362Z,68.16
2014-08-06T00:12:39.036Z,67.22
2014-08-06T00:13:44.022Z,67.43
2014-08-06T00:14:48.992Z,68.73
2014-08-06T00:15:53.979Z,68.74
2014-08-06T00:16:58.668Z,68.66
2014-08-06T00:18:03.935Z,68.51
2014-08-06T00:19:08.627Z,68.37
2014-08-06T00:20:13.315Z,68.61
2014-08-06T00:21:17.989Z,68.73
2014-08-06T00:22:23.273Z,68.43
2014-08-06T00:23:28.244Z,68.07
2014-08-06T00:24:32.934Z,68.43
2014-08-06T00:25:37.903Z,69.07
2014-08-06T00:26:42.891Z,69.08
2014-08-06T00:27:47.564Z,69.15
2014-08-06T00:28:52.253Z,69.16
2014-08-06T00:29:57.224Z,69
2014-08-06T00:31:01.913Z,69.49
2014-08-06T00:32:07.087Z,68.97
2014-08-06T00:33:11.761Z,67.79
2014-08-06T00:34:16.451Z,67.38
2014-08-06T00:35:21.440Z,67.18
2014-08-06T00:36:26.129Z,67.21
2014-08-06T00:37:30.802Z,66.8
2014-08-06T00:38:35.492Z,67.02
2014-08-06T00:39:40.166Z,67.31
2014-08-06T00:40:45.152Z,68.43
2014-08-06T00:41:50.139Z,68.73
2014-08-06T00:42:54.811Z,67.85
2014-08-06T00:43:59.110Z,67.44
2014-08-06T00:45:04.098Z,67.3
2014-08-06T00:46:08.771Z,67.07
2014-08-06T00:47:13.461Z,67.08
2014-08-06T00:48:18.135Z,67.95
2014-08-06T00:49:22.823Z,68.63
2014-08-06T00:50:27.497Z,68.83
2014-08-06T00:51:32.188Z,69.12
2014-08-06T00:52:37.159Z,68.73
2014-08-06T00:53:41.849Z,68.23
2014-08-06T00:54:46.821Z,67.91
2014-08-06T00:55:51.509Z,67.49
2014-08-06T00:56:56.184Z,67.95
2014-08-06T00:58:00.873Z,67.44
2014-08-06T00:59:05.547Z,66.89
2014-08-06T01:00:10.534Z,66.82
2014-08-06T01:01:15.222Z,66.68
2014-08-06T01:02:20.193Z,66.67
2014-08-06T01:03:25.477Z,66.5
2014-08-06T01:04:30.761Z,66.81
2014-08-06T01:05:35.449Z,66.09
2014-08-06T01:06:40.420Z,65.92
2014-08-06T01:07:45.110Z,65.25
2014-08-06T01:08:49.784Z,65.35
2014-08-06T01:09:54.473Z,65.84
2014-08-06T01:10:58.460Z,66.5
2014-08-06T01:12:03.150Z,67.21
2014-08-06T01:13:07.824Z,66.63
2014-08-06T01:14:12.810Z,66.65
2014-08-06T01:15:17.796Z,66.28
2014-08-06T01:16:22.470Z,66.18
2014-08-06T01:17:27.160Z,65.82
2014-08-06T01:18:32.130Z,66.07
2014-08-06T01:19:36.821Z,66.13
2014-08-06T01:20:41.792Z,66.04
2014-08-06T01:21:46.481Z,66.69
2014-08-06T01:22:51.467Z,67.13
2014-08-06T01:23:56.447Z,67.44
2014-08-06T01:25:01.772Z,67.66
2014-08-06T01:26:06.506Z,67.19
2014-08-06T01:27:11.533Z,67.18
2014-08-06T01:28:16.252Z,67.29
2014-08-06T01:29:20.969Z,67.28
2014-08-06T01:30:25.659Z,66.85
2014-08-06T01:31:30.363Z,66.51
2014-08-06T01:32:35.647Z,66.29
2014-08-06T01:33:40.351Z,67.98
2014-08-06T01:34:45.032Z,69.02
2014-08-06T01:35:50.024Z,67.76
2014-08-06T01:36:54.999Z,67.36
2014-08-06T01:37:59.694Z,67.4
2014-08-06T01:39:04.375Z,67.7
2014-08-06T01:40:09.066Z,67.49
2014-08-06T01:41:14.059Z,66.43
2014-08-06T01:42:18.734Z,66.77
2014-08-06T01:43:23.425Z,67.28
2014-08-06T01:44:28.100Z,67.37
2014-08-06T01:45:32.790Z,67.12
2014-08-06T01:46:37.762Z,67.13
2014-08-06T01:47:42.748Z,66.9
2014-08-06T01:48:47.439Z,66.71
2014-08-06T01:49:52.113Z,66.54
2014-08-06T01:50:56.802Z,68.2
2014-08-06T01:52:01.476Z,68.26
2014-08-06T01:53:06.463Z,68.19
2014-08-06T01:54:11.136Z,68.14
2014-08-06T01:55:15.826Z,67.52
2014-08-06T01:56:20.500Z,66.84
2014-08-06T01:57:25.189Z,66.89
2014-08-06T01:58:29.863Z,66.73
2014-08-06T01:59:34.554Z,67.97
2014-08-06T02:00:39.524Z,68.74
2014-08-06T02:01:44.213Z,68.1
2014-08-06T02:02:49.199Z,67.55
2014-08-06T02:03:53.873Z,67.1
2014-08-06T02:04:58.861Z,67.31
2014-08-06T02:06:03.549Z,67.41
2014-08-06T02:07:08.224Z,67.75
2014-08-06T02:08:13.210Z,68.58
2014-08-06T02:09:17.900Z,69.07
2014-08-06T02:10:22.574Z,69.17
2014-08-06T02:11:27.559Z,69.18
2014-08-06T02:12:32.249Z,69.28
2014-08-06T02:13:36.923Z,69.55
2014-08-06T02:14:42.207Z,69.64
2014-08-06T02:15:46.881Z,68.5
2014-08-06T02:16:51.571Z,68.93
2014-08-06T02:17:56.543Z,69.07
2014-08-06T02:19:01.826Z,67.85
2014-08-06T02:20:06.516Z,67.25
2014-08-06T02:21:11.485Z,66.92
2014-08-06T02:22:16.176Z,66.54
2014-08-06T02:23:20.865Z,66.67
2014-08-06T02:24:25.835Z,66.27
2014-08-06T02:25:30.821Z,66.7
2014-08-06T02:26:35.511Z,66.67
2014-08-06T02:27:40.482Z,67.09
2014-08-06T02:28:45.172Z,67.11
2014-08-06T02:29:50.142Z,66.87
2014-08-06T02:30:55.128Z,67.37
2014-08-06T02:32:00.099Z,68.14
2014-08-06T02:33:05.087Z,68.73
2014-08-06T02:34:10.058Z,68.84
2014-08-06T02:35:14.748Z,69.97
2014-08-06T02:36:19.422Z,69.7
2014-08-06T02:37:24.408Z,68.65
2014-08-06T02:38:29.082Z,68.75
2014-08-06T02:39:34.068Z,67.87
2014-08-06T02:40:39.038Z,67.49
2014-08-06T02:41:43.728Z,67.5
2014-08-06T02:42:48.418Z,67.4
2014-08-06T02:43:53.107Z,67.08
2014-08-06T02:44:58.094Z,67.35
2014-08-06T02:46:02.767Z,67.4
2014-08-06T02:47:07.753Z,68.06
2014-08-06T02:48:12.724Z,68.49
2014-08-06T02:49:17.711Z,69.41
2014-08-06T02:50:22.403Z,68.25
2014-08-06T02:51:27.373Z,68.08
2014-08-06T02:54:39.503Z,68.89
2014-08-06T02:55:44.162Z,69.32
2014-08-06T02:56:48.132Z,69.16
2014-08-06T02:57:52.791Z,68.78
2014-08-06T02:58:58.058Z,68.37
2014-08-06T03:00:02.716Z,67.86
2014-08-06T03:01:07.687Z,66.95
2014-08-06T03:02:11.673Z,67.23
2014-08-06T03:03:16.644Z,67.64
2014-08-06T03:04:21.630Z,67.52
2014-08-06T03:05:26.304Z,67.34
2014-08-06T03:06:31.290Z,67.31
2014-08-06T03:07:35.965Z,66.8
2014-08-06T03:08:40.656Z,67.1
2014-08-06T03:09:45.346Z,67.01
2014-08-06T03:10:50.628Z,66.87
2014-08-06T03:11:55.318Z,66.76
2014-08-06T03:13:00.288Z,66.63
2014-08-06T03:14:04.978Z,67.05
2014-08-06T03:15:09.667Z,67.04
2014-08-06T03:16:14.341Z,67.01
2014-08-06T03:19:29.769Z,68.53
2014-08-06T03:20:34.740Z,68.93
2014-08-06T03:21:39.398Z,69.15
2014-08-06T03:22:44.056Z,69.26
2014-08-06T03:23:48.714Z,69.68
2014-08-06T03:24:53.388Z,68.92
2014-08-06T03:25:58.049Z,68.25
2014-08-06T03:27:02.706Z,69.09
2014-08-06T03:28:07.678Z,69.42
2014-08-06T03:29:12.366Z,69.85
2014-08-06T03:30:17.057Z,70.01
2014-08-06T03:31:22.324Z,69.24
2014-08-06T03:32:27.014Z,68.53
2014-08-06T03:33:31.703Z,68.18
2014-08-06T03:34:36.377Z,67.92
2014-08-06T03:35:41.067Z,67.36
2014-08-06T03:36:45.741Z,67.67
2014-08-06T03:37:50.727Z,67.38
2014-08-06T03:38:55.401Z,67.04
2014-08-06T03:40:00.387Z,67.01
2014-08-06T03:41:05.358Z,67.1
2014-08-06T03:42:10.344Z,68.29
2014-08-06T03:43:15.018Z,68.81
2014-08-06T03:44:19.708Z,69.26
2014-08-06T03:45:24.382Z,69.67
2014-08-06T03:46:29.368Z,68.26
2014-08-06T03:47:34.042Z,67.86
2014-08-06T03:48:39.029Z,67.82
2014-08-06T03:49:43.703Z,68.73
2014-08-06T03:50:48.690Z,69.35
2014-08-06T03:51:53.379Z,69.56
2014-08-06T03:52:58.350Z,69.86
2014-08-06T03:54:03.336Z,69.9
2014-08-06T03:55:08.026Z,70.43
2014-08-06T03:56:12.996Z,70.84
2014-08-06T03:57:17.686Z,69.26
2014-08-06T03:58:22.656Z,69.9
2014-08-06T03:59:27.345Z,70.4
2014-08-06T04:00:32.020Z,70.8
2014-08-06T04:01:36.693Z,70.61
2014-08-06T04:02:41.680Z,69.62
2014-08-06T04:03:46.651Z,69.02
2014-08-06T04:04:51.341Z,68.67
2014-08-06T04:05:56.607Z,68.2
2014-08-06T04:09:09.038Z,67.89
2014-08-06T04:10:13.711Z,67.75
2014-08-06T04:11:18.666Z,67.75
2014-08-06T04:12:23.637Z,67.89
2014-08-06T04:13:28.295Z,70.42
2014-08-06T04:14:32.953Z,72.03
2014-08-06T04:15:37.627Z,70.91
2014-08-06T04:16:42.285Z,69.77
2014-08-06T04:17:47.287Z,68.88
2014-08-06T04:18:51.976Z,68.52
2014-08-06T04:19:56.650Z,68.41
2014-08-06T04:21:01.340Z,68.6
2014-08-06T04:22:06.311Z,68.07
2014-08-06T04:23:11.001Z,68.14
2014-08-06T04:24:15.673Z,68.15
2014-08-06T04:25:20.959Z,68.61
2014-08-06T04:26:25.633Z,68.41
2014-08-06T04:27:30.323Z,68.31
2014-08-06T04:28:35.294Z,67.79
2014-08-06T04:29:40.280Z,68.11
2014-08-06T04:30:44.953Z,67.62
2014-08-06T04:31:49.643Z,67.57
2014-08-06T04:32:54.911Z,67.72
2014-08-06T04:33:59.601Z,67.62
2014-08-06T04:35:04.275Z,67.97
2014-08-06T04:36:09.260Z,68.98
2014-08-06T04:37:14.231Z,69.47
2014-08-06T04:38:19.217Z,68.43
2014-08-06T04:39:24.203Z,68.33
2014-08-06T04:40:28.877Z,68.01
2014-08-06T04:41:33.567Z,67.93
2014-08-06T04:42:38.258Z,67.63
2014-08-06T04:43:43.228Z,67.8
2014-08-06T04:44:48.200Z,67.89
2014-08-06T04:45:53.483Z,67.72
2014-08-06T04:46:58.173Z,67.76
2014-08-06T04:48:03.143Z,67.54
2014-08-06T04:49:07.817Z,67.26
2014-08-06T04:50:12.507Z,67.03
2014-08-06T04:51:17.773Z,67.01
2014-08-06T04:52:22.463Z,67.36
2014-08-06T04:53:27.152Z,67.59
2014-08-06T04:54:31.826Z,67.42
2014-08-06T04:55:36.516Z,67.65
2014-08-06T04:56:41.205Z,67.86
2014-08-06T04:57:46.176Z,68.07
2014-08-06T04:58:50.867Z,68.44
2014-08-06T04:59:55.541Z,68.92
2014-08-06T05:01:00.230Z,68.86
2014-08-06T05:02:04.905Z,67.84
2014-08-06T05:03:09.890Z,68.65
2014-08-06T05:04:14.877Z,69.14
2014-08-06T05:05:20.145Z,69.18
2014-08-06T05:06:25.131Z,69.11
2014-08-06T05:07:29.820Z,67.58
2014-08-06T05:08:34.806Z,67.18
2014-08-06T05:09:39.777Z,67.34
2014-08-06T05:10:45.060Z,66.37
2014-08-06T05:11:50.032Z,66.25
2014-08-06T05:12:55.314Z,65.85
2014-08-06T05:13:59.988Z,65.7
2014-08-06T05:15:04.976Z,65.91
2014-08-06T05:16:09.649Z,65.13
2014-08-06T05:17:14.339Z,65.24
2014-08-06T05:18:19.012Z,65.38
2014-08-06T05:19:23.702Z,66.53
2014-08-06T05:20:28.392Z,67.39
2014-08-06T05:21:33.065Z,67.31
2014-08-06T05:22:38.052Z,67.01
2014-08-06T05:23:42.742Z,67.7
2014-08-06T05:24:47.416Z,66.36
2014-08-06T05:25:52.105Z,65.51
2014-08-06T05:26:57.076Z,65.57
2014-08-06T05:28:01.766Z,65.85
2014-08-06T05:29:06.736Z,66.12
2014-08-06T05:30:11.425Z,66.73
2014-08-06T05:31:16.710Z,67.42
2014-08-06T05:32:21.384Z,67.4
2014-08-06T05:33:26.370Z,66.99
2014-08-06T05:34:31.043Z,67.36
2014-08-06T05:35:35.733Z,68.58
2014-08-06T05:36:40.409Z,67.35
2014-08-06T05:37:45.395Z,65.98
2014-08-06T05:38:50.381Z,65.79
2014-08-06T05:39:55.055Z,66.19
2014-08-06T05:40:59.744Z,65.07
2014-08-06T05:42:04.418Z,64.21
2014-08-06T05:43:09.108Z,63.57
2014-08-06T05:44:13.783Z,64.09
2014-08-06T05:45:18.471Z,64.15
2014-08-06T05:46:23.442Z,63.68
2014-08-06T05:47:28.131Z,63.86
2014-08-06T05:48:33.102Z,61.22
2014-08-06T05:49:37.792Z,59.07
2014-08-06T05:50:42.778Z,58.57
2014-08-06T05:51:48.046Z,56.51
2014-08-06T05:52:53.032Z,56
2014-08-06T05:53:58.002Z,55.15
2014-08-06T05:55:02.694Z,53.49
2014-08-06T05:56:07.384Z,52.43
2014-08-06T05:57:12.667Z,50.79
2014-08-06T05:58:16.966Z,50.19
2014-08-06T05:59:21.936Z,49.22
2014-08-06T06:00:26.922Z,48.5
2014-08-06T06:01:31.612Z,47.59
2014-08-06T06:02:36.582Z,47.09
2014-08-06T06:03:41.865Z,46.07
2014-08-06T06:04:46.555Z,45.42
2014-08-06T06:05:51.244Z,45.68
2014-08-06T06:06:56.231Z,44.74
2014-08-06T06:08:01.217Z,44.59
2014-08-06T06:09:05.907Z,44.73
2014-08-06T06:10:10.893Z,45.04
2014-08-06T06:11:15.585Z,44.12
2014-08-06T06:12:20.258Z,44.63
2014-08-06T06:13:24.948Z,44.38
2014-08-06T06:14:29.636Z,43.42
2014-08-06T06:15:34.327Z,43.75
2014-08-06T06:16:39.313Z,42.91
2014-08-06T06:17:44.300Z,42.17
2014-08-06T06:18:48.989Z,39.83
2014-08-06T06:19:54.271Z,39.5
2014-08-06T06:20:58.961Z,39.55
2014-08-06T06:22:04.245Z,40.8
2014-08-06T06:23:09.231Z,40.33
2014-08-06T06:24:14.217Z,40.63
2014-08-06T06:25:18.220Z,43.25
2014-08-06T06:26:23.205Z,44.08
2014-08-06T06:27:27.895Z,43.8
2014-08-06T06:28:32.584Z,41.75
2014-08-06T06:29:37.274Z,42.08
2014-08-06T06:30:42.559Z,42.51
2014-08-06T06:31:47.545Z,40.67
2014-08-06T06:32:52.235Z,39.62
2014-08-06T06:33:57.518Z,40.21
2014-08-06T06:35:02.505Z,39.41
2014-08-06T06:36:07.194Z,38.68
2014-08-06T06:37:11.884Z,38.85
2014-08-06T06:38:16.573Z,38.16
2014-08-06T06:39:21.264Z,40.4
2014-08-06T06:40:25.952Z,41.76
2014-08-06T06:41:30.938Z,39.85
2014-08-06T06:42:35.925Z,39.46
2014-08-06T06:43:40.911Z,40.3
2014-08-06T06:44:45.601Z,40.88
2014-08-06T06:45:50.883Z,41.52
2014-08-06T06:46:55.870Z,40.81
2014-08-06T06:48:00.560Z,42.95
2014-08-06T06:49:05.248Z,41.23
2014-08-06T06:50:09.940Z,41.48
2014-08-06T06:51:14.629Z,42.39
2014-08-06T06:52:19.913Z,42.19
2014-08-06T06:53:24.602Z,44.57
2014-08-06T06:54:29.605Z,46.1
2014-08-06T06:55:34.295Z,47.51
2014-08-06T06:56:38.983Z,47.96
2014-08-06T06:57:43.674Z,48.14
2014-08-06T06:58:48.362Z,49.11
2014-08-06T06:59:53.348Z,49.83
2014-08-06T07:00:58.038Z,53.07
2014-08-06T07:02:02.712Z,54.35
2014-08-06T07:03:07.401Z,53.9
2014-08-06T07:04:12.091Z,53.28
2014-08-06T07:05:16.765Z,53.1
2014-08-06T07:06:21.455Z,52.95
2014-08-06T07:07:26.443Z,51.9
2014-08-06T07:08:31.115Z,52.42
2014-08-06T07:09:35.806Z,51.65
2014-08-06T07:10:40.792Z,51.5
2014-08-06T07:11:45.778Z,52.03
2014-08-06T07:12:50.764Z,51.97
2014-08-06T07:13:55.455Z,51.88
2014-08-06T07:15:00.424Z,52.05
2014-08-06T07:16:05.411Z,52.64
2014-08-06T07:17:10.397Z,52.57
2014-08-06T07:18:15.087Z,51.7
2014-08-06T07:19:20.057Z,52.07
2014-08-06T07:20:24.762Z,52.67
2014-08-06T07:21:29.436Z,52.05
2014-08-06T07:22:34.126Z,52.09
2014-08-06T07:23:38.815Z,52.03
2014-08-06T07:24:43.507Z,52.32
2014-08-06T07:25:48.493Z,52.4
2014-08-06T07:26:53.464Z,52.51
2014-08-06T07:27:58.747Z,52.94
2014-08-06T07:29:03.437Z,53.71
2014-08-06T07:30:08.422Z,55.11
2014-08-06T07:31:13.705Z,54.98
2014-08-06T07:32:18.395Z,53.78
2014-08-06T07:33:23.366Z,53.05
2014-08-06T07:34:28.055Z,53.12
2014-08-06T07:35:33.042Z,53.8
2014-08-06T07:36:38.012Z,53.23
2014-08-06T07:37:43.015Z,53.17
2014-08-06T07:38:47.985Z,52.91
2014-08-06T07:39:51.988Z,52.51
2014-08-06T07:40:56.975Z,52.97
2014-08-06T07:42:01.962Z,53.01
2014-08-06T07:43:06.636Z,53.14
2014-08-06T07:44:11.325Z,52.84
2014-08-06T07:45:16.015Z,52.55
2014-08-06T07:46:20.704Z,52.47
2014-08-06T07:47:25.394Z,52.53
2014-08-06T07:48:30.066Z,52.52
2014-08-06T07:49:35.053Z,52.77
2014-08-06T07:50:39.743Z,52.23
2014-08-06T07:51:44.714Z,51.94
2014-08-06T07:52:49.404Z,52.24
2014-08-06T07:53:54.389Z,52.68
2014-08-06T07:54:59.376Z,52.78
2014-08-06T07:56:04.080Z,52.82
2014-08-06T07:57:08.770Z,52.3
2014-08-06T07:58:13.758Z,52.23
2014-08-06T07:59:18.745Z,52.31
2014-08-06T08:00:23.419Z,52.28
2014-08-06T08:01:28.108Z,52.22
2014-08-06T08:02:32.798Z,53.36
2014-08-06T08:03:37.487Z,53.18
2014-08-06T08:04:42.161Z,54.2
2014-08-06T08:05:46.850Z,53.63
2014-08-06T08:06:51.837Z,53.57
2014-08-06T08:07:56.511Z,53.51
2014-08-06T08:09:01.497Z,54.28
2014-08-06T08:10:06.779Z,53.18
2014-08-06T08:11:11.078Z,54.02
2014-08-06T08:12:16.066Z,52.8
2014-08-06T08:13:21.038Z,52.7
2014-08-06T08:14:25.728Z,51.76
2014-08-06T08:15:30.416Z,52.33
2014-08-06T08:16:35.106Z,52.5
2014-08-06T08:17:39.795Z,52.2
2014-08-06T08:18:44.485Z,52
2014-08-06T08:19:49.471Z,51.47
2014-08-06T08:20:54.442Z,51.34
2014-08-06T08:21:59.725Z,52.72
2014-08-06T08:23:04.712Z,51.95
2014-08-06T08:24:09.713Z,52.13
2014-08-06T08:25:14.996Z,52.61
2014-08-06T08:26:19.686Z,52.38
2014-08-06T08:27:24.376Z,52.42
2014-08-06T08:28:29.361Z,52
2014-08-06T08:29:34.349Z,52.45
2014-08-06T08:30:39.335Z,53.49
2014-08-06T08:31:44.322Z,55.31
2014-08-06T08:32:48.996Z,55.67
2014-08-06T08:33:53.701Z,54.48
2014-08-06T08:34:58.391Z,53.23
2014-08-06T08:36:03.096Z,53.44
2014-08-06T08:37:08.082Z,52.71
2014-08-06T08:38:12.788Z,52.56
2014-08-06T08:39:17.494Z,53.42
2014-08-06T08:40:22.182Z,53.07
2014-08-06T08:41:27.185Z,52.01
2014-08-06T08:42:31.874Z,53.3
2014-08-06T08:43:36.580Z,51.85
2014-08-06T08:44:41.565Z,51.57
2014-08-06T08:45:46.270Z,51.81
2014-08-06T08:46:50.960Z,51.59
2014-08-06T08:47:55.667Z,51.15
2014-08-06T08:49:00.950Z,51.06
2014-08-06T08:50:05.952Z,50.89
2014-08-06T08:51:10.642Z,50.86
2014-08-06T08:52:15.346Z,52.33
2014-08-06T08:53:20.332Z,51.57
2014-08-06T08:54:25.037Z,50.7
2014-08-06T08:55:29.742Z,50.13
2014-08-06T08:56:34.447Z,49.83
2014-08-06T08:57:38.465Z,51.29
2014-08-06T08:58:43.154Z,52.34
2014-08-06T08:59:47.859Z,51.55
2014-08-06T09:00:52.564Z,51.36
2014-08-06T09:01:57.552Z,51.6
2014-08-06T09:03:02.554Z,52.3
2014-08-06T09:04:07.541Z,51.97
2014-08-06T09:05:12.527Z,51.62
2014-08-06T09:06:17.529Z,51.38
2014-08-06T09:07:22.812Z,50.88
2014-08-06T09:08:27.517Z,50.27
2014-08-06T09:09:32.504Z,50.42
2014-08-06T09:10:37.506Z,50.58
2014-08-06T09:11:42.195Z,50.13
2014-08-06T09:12:46.900Z,50.4
2014-08-06T09:13:52.199Z,50.08
2014-08-06T09:14:57.186Z,49.1
2014-08-06T09:16:01.500Z,48.87
2014-08-06T09:17:06.783Z,48.82
2014-08-06T09:18:11.786Z,50.36
2014-08-06T09:19:16.774Z,51.08
2014-08-06T09:20:22.072Z,50.06
2014-08-06T09:21:26.981Z,49.46
2014-08-06T09:22:31.982Z,49.44
2014-08-06T09:23:36.672Z,49.74
2014-08-06T09:24:41.673Z,50.35
2014-08-06T09:25:46.661Z,49.9
2014-08-06T09:26:51.960Z,49.46
2014-08-06T09:27:56.648Z,48.96
2014-08-06T09:29:01.353Z,48.62
2014-08-06T09:30:06.341Z,48.38
2014-08-06T09:31:11.045Z,48.58
2014-08-06T09:32:16.031Z,47.68
2014-08-06T09:33:21.033Z,46.81
2014-08-06T09:34:26.019Z,46.49
2014-08-06T09:35:30.727Z,47.3
2014-08-06T09:36:35.432Z,45.11
2014-08-06T09:37:40.121Z,45.38
2014-08-06T09:38:44.842Z,45.67
2014-08-06T09:39:49.531Z,45.75
2014-08-06T09:40:54.534Z,45.66
2014-08-06T09:41:59.224Z,46.16
2014-08-06T09:43:03.928Z,47.67
2014-08-06T09:44:08.618Z,48.5
2014-08-06T09:45:13.323Z,47.78
2014-08-06T09:46:18.012Z,46.86
2014-08-06T09:47:22.717Z,46.45
2014-08-06T09:48:27.704Z,48.01
2014-08-06T09:49:31.722Z,47.41
2014-08-06T09:50:36.411Z,47.04
2014-08-06T09:51:41.116Z,46.95
2014-08-06T09:52:46.118Z,48.37
2014-08-06T09:53:51.104Z,47.95
2014-08-06T09:54:55.809Z,47.87
2014-08-06T09:56:00.810Z,46.11
2014-08-06T09:57:05.815Z,46.95
2014-08-06T09:58:10.504Z,48.36
2014-08-06T09:59:15.507Z,48.21
2014-08-06T10:00:20.493Z,48.22
2014-08-06T10:01:25.791Z,47.42
2014-08-06T10:02:30.496Z,48.65
2014-08-06T10:03:35.201Z,47.03
2014-08-06T10:04:40.235Z,48.9
2014-08-06T10:05:44.924Z,44.26
2014-08-06T10:06:49.629Z,43.32
2014-08-06T10:07:54.318Z,43.86
2014-08-06T10:08:59.023Z,43.98
2014-08-06T10:10:03.713Z,44.58
2014-08-06T10:11:08.419Z,45
2014-08-06T10:12:13.109Z,46.4
2014-08-06T10:13:17.814Z,45.72
2014-08-06T10:14:22.520Z,46
2014-08-06T10:15:27.210Z,45.88
2014-08-06T10:16:31.914Z,46.61
2014-08-06T10:17:36.620Z,45.41
2014-08-06T10:18:41.310Z,46.19
2014-08-06T10:19:46.014Z,46.39
2014-08-06T10:20:51.298Z,46.53
2014-08-06T10:21:55.316Z,45.55
2014-08-06T10:23:00.318Z,45.62
2014-08-06T10:24:05.304Z,46.8
2014-08-06T10:25:10.040Z,46.78
2014-08-06T10:26:14.730Z,46.16
2014-08-06T10:27:19.435Z,45.98
2014-08-06T10:28:24.124Z,46.69
2014-08-06T10:29:28.830Z,46.46
2014-08-06T10:30:33.852Z,47.25
2014-08-06T10:31:38.597Z,45.98
2014-08-06T10:32:43.348Z,47.81
2014-08-06T10:33:48.093Z,46.48
2014-08-06T10:34:52.824Z,46.78
2014-08-06T10:35:57.543Z,45.73
2014-08-06T10:37:02.562Z,45.31
2014-08-06T10:38:07.266Z,46.77
2014-08-06T10:39:12.285Z,46.58
2014-08-06T10:40:17.282Z,46.12
2014-08-06T10:41:22.368Z,46.66
2014-08-06T10:42:27.062Z,45.22
2014-08-06T10:43:32.071Z,45.83
2014-08-06T10:44:37.360Z,46.19
2014-08-06T10:45:42.068Z,46.52
2014-08-06T10:46:47.354Z,44.78
2014-08-06T10:47:52.060Z,44.56
2014-08-06T10:48:56.752Z,44.64
2014-08-06T10:50:01.460Z,45.48
2014-08-06T10:51:06.148Z,44.24
2014-08-06T10:52:10.855Z,45.38
2014-08-06T10:53:15.545Z,46.1
2014-08-06T10:54:20.547Z,44.61
2014-08-06T10:55:25.533Z,43.81
2014-08-06T10:56:30.537Z,44.86
2014-08-06T10:57:35.538Z,43.31
2014-08-06T10:58:40.230Z,43.54
2014-08-06T10:59:44.934Z,44.9
2014-08-06T11:00:49.639Z,44.66
2014-08-06T11:01:54.641Z,45.13
2014-08-06T11:02:59.332Z,44.67
2014-08-06T11:04:04.334Z,43.63
2014-08-06T11:05:09.039Z,44.37
2014-08-06T11:06:13.744Z,44.27
2014-08-06T11:07:18.433Z,44.25
2014-08-06T11:08:23.138Z,44.28
2014-08-06T11:09:28.140Z,42.91
2014-08-06T11:10:32.846Z,43.61
2014-08-06T11:11:37.536Z,43.85
2014-08-06T11:12:42.835Z,43.69
2014-08-06T11:13:47.523Z,43.85
2014-08-06T11:14:52.525Z,42.76
2014-08-06T11:15:57.528Z,43.29
2014-08-06T11:17:02.233Z,42.28
2014-08-06T11:18:06.939Z,43.15
2014-08-06T11:19:11.643Z,42.91
2014-08-06T11:20:16.349Z,42.42
2014-08-06T11:21:21.632Z,42.35
2014-08-06T11:22:26.337Z,41.61
2014-08-06T11:23:31.027Z,41.67
2014-08-06T11:24:35.732Z,41.52
2014-08-06T11:25:40.421Z,43.53
2014-08-06T11:26:45.127Z,42.43
2014-08-06T11:27:49.816Z,42.08
2014-08-06T11:28:54.521Z,43.51
2014-08-06T11:29:59.523Z,43.33
2014-08-06T11:31:04.228Z,42.96
2014-08-06T11:32:08.918Z,43.96
2014-08-06T11:33:13.905Z,45.92
2014-08-06T11:34:18.626Z,44.35
2014-08-06T11:35:23.611Z,45.77
2014-08-06T11:36:28.317Z,45.28
2014-08-06T11:37:33.304Z,45.75
2014-08-06T11:38:38.008Z,45.55
2014-08-06T11:39:43.011Z,44.31
2014-08-06T11:40:47.734Z,44.03
2014-08-06T11:41:52.719Z,43.91
2014-08-06T11:42:57.425Z,44.8
2014-08-06T11:44:02.114Z,44.78
2014-08-06T11:45:06.820Z,44.69
2014-08-06T11:46:11.821Z,43.71
2014-08-06T11:47:16.808Z,43.86
2014-08-06T11:48:21.810Z,43.99
2014-08-06T11:49:26.499Z,43.49
2014-08-06T11:50:31.205Z,44.82
2014-08-06T11:51:36.191Z,43.81
2014-08-06T11:52:40.912Z,42.3
2014-08-06T11:53:45.633Z,43.37
2014-08-06T11:54:50.667Z,42.9
2014-08-06T11:55:55.355Z,42.75
2014-08-06T11:57:00.061Z,43.17
2014-08-06T11:58:04.751Z,43.46
2014-08-06T11:59:09.455Z,42.84
2014-08-06T12:00:14.146Z,42.07
2014-08-06T12:01:19.148Z,41.72
2014-08-06T12:02:24.149Z,42.88
2014-08-06T12:03:29.824Z,43.8
2014-08-06T12:04:34.513Z,42.51
2014-08-06T12:05:39.514Z,43.24
2014-08-06T12:06:44.220Z,43.28
2014-08-06T12:07:48.925Z,43.17
2014-08-06T12:08:53.615Z,42.95
2014-08-06T12:09:58.320Z,44.01
2014-08-06T12:11:03.338Z,44.37
2014-08-06T12:12:08.027Z,43.26
2014-08-06T12:13:12.732Z,42.71
2014-08-06T12:14:17.437Z,43.12
2014-08-06T12:15:22.439Z,43.06
2014-08-06T12:16:27.724Z,44.38
2014-08-06T12:17:33.021Z,42.12
2014-08-06T12:18:37.727Z,42.81
2014-08-06T12:19:42.433Z,44.72
2014-08-06T12:20:47.121Z,42.95
2014-08-06T12:21:51.827Z,44.15
2014-08-06T12:22:56.813Z,43.42
2014-08-06T12:24:01.518Z,42.96
2014-08-06T12:25:06.224Z,42.37
2014-08-06T12:26:11.023Z,42.3
2014-08-06T12:27:15.728Z,42.55
2014-08-06T12:28:20.417Z,41.9
2014-08-06T12:29:25.122Z,40.3
2014-08-06T12:30:30.109Z,40.4
2014-08-06T12:31:35.111Z,40.87
2014-08-06T12:32:39.800Z,42.06
2014-08-06T12:33:44.506Z,41.08
2014-08-06T12:34:49.508Z,40.88
2014-08-06T12:35:54.494Z,40.12
2014-08-06T12:36:59.199Z,38.99
2014-08-06T12:38:03.904Z,38.1
2014-08-06T12:39:08.594Z,39.19
2014-08-06T12:40:13.597Z,39.23
2014-08-06T12:41:18.598Z,39.02
2014-08-06T12:42:23.287Z,38.91
2014-08-06T12:43:27.993Z,38.95
2014-08-06T12:44:32.994Z,39.37
2014-08-06T12:45:37.700Z,39.46
2014-08-06T12:46:42.687Z,38.06
2014-08-06T12:47:47.688Z,37.6
2014-08-06T12:48:52.394Z,38.84
2014-08-06T12:49:57.098Z,37.68
2014-08-06T12:51:01.789Z,38.92
2014-08-06T12:52:06.791Z,38.33
2014-08-06T12:53:11.777Z,37.95
2014-08-06T12:54:16.482Z,40.4
2014-08-06T12:55:21.173Z,38.58
2014-08-06T12:56:26.174Z,39.78
2014-08-06T12:57:31.160Z,39.16
2014-08-06T12:58:36.163Z,39.22
2014-08-06T12:59:40.867Z,39.07
2014-08-06T13:00:45.557Z,40.96
2014-08-06T13:01:50.262Z,38.48
2014-08-06T13:02:55.545Z,39
2014-08-06T13:04:00.251Z,39.28
2014-08-06T13:05:04.940Z,39.35
2014-08-06T13:06:09.943Z,38.81
2014-08-06T13:07:14.947Z,38.45
2014-08-06T13:08:19.651Z,39.92
2014-08-06T13:09:24.341Z,39.33
2014-08-06T13:10:29.343Z,39.1
2014-08-06T13:11:34.048Z,37.8
2014-08-06T13:12:39.050Z,36.9
2014-08-06T13:13:44.037Z,36.1
2014-08-06T13:14:49.038Z,37.31
2014-08-06T13:15:53.744Z,37.94
2014-08-06T13:16:58.433Z,37
2014-08-06T13:18:03.138Z,37.35
2014-08-06T13:19:08.140Z,36.57
2014-08-06T13:20:13.142Z,38.19
2014-08-06T13:21:18.130Z,37.65
2014-08-06T13:22:22.834Z,37.73
2014-08-06T13:23:27.523Z,38.65
2014-08-06T13:24:32.525Z,37.89
2014-08-06T13:25:37.231Z,38.84
2014-08-06T13:26:41.920Z,37.12
2014-08-06T13:27:46.625Z,36.91
2014-08-06T13:28:51.331Z,37.77
2014-08-06T13:29:56.020Z,36.71
2014-08-06T13:31:01.022Z,36.65
2014-08-06T13:32:06.025Z,36.93
2014-08-06T13:33:11.324Z,37.54
2014-08-06T13:34:16.310Z,37.39
2014-08-06T13:35:21.015Z,36.7
2014-08-06T13:36:25.704Z,38.07
2014-08-06T13:37:30.707Z,39.13
2014-08-06T13:38:35.990Z,39.25
2014-08-06T13:39:40.992Z,39.98
2014-08-06T13:40:45.698Z,39.89
2014-08-06T13:41:50.683Z,40.17
2014-08-06T13:42:55.982Z,38.44
2014-08-06T13:44:00.969Z,39
2014-08-06T13:45:05.674Z,38.97
2014-08-06T13:46:10.363Z,39.5
2014-08-06T13:47:15.068Z,39.34
2014-08-06T13:48:19.758Z,38.05
2014-08-06T13:49:24.761Z,38.45
2014-08-06T13:50:29.465Z,39.08
2014-08-06T13:51:34.156Z,39.39
2014-08-06T13:52:39.172Z,38.57
2014-08-06T13:53:43.863Z,39.62
2014-08-06T13:54:48.865Z,40.53
2014-08-06T13:55:53.851Z,39.7
2014-08-06T13:56:58.853Z,39.82
2014-08-06T13:58:03.558Z,41.2
2014-08-06T13:59:08.545Z,39.65
2014-08-06T14:00:13.250Z,40.08
2014-08-06T14:01:17.267Z,38.89
2014-08-06T14:02:21.957Z,39.92
2014-08-06T14:03:26.662Z,39.63
2014-08-06T14:04:31.352Z,40.31
2014-08-06T14:05:36.353Z,41